• Join FlightAware (Why Join?)
  • Login
  • US Flag 
05:44PM EDT


 

Airport Tracker/Info


-or-


 

Live Flight TrackerFlight Track Log ✈ N98017 ✈ 05-Sep-2013 ✈ KOWD - KPWM

Flight Track Log - Related Links

Times and Time Zones

All times are in EDT time to prevent confusion due to time zone crossing. See the N98017 flight status page for this flight to view local times or setup timezone preferences in your user account.

Time Position Orientation Groundspeed Altitude Reporting Facility
EDT Latitude Longitude Course Direction KTS MPH feet Rate Location/Type
04:45PM 42.2000 -71.1833 340° North 73 84 900  Level KA90
04:46PM 42.2333 -71.2000 340° North 82 94 1,500 420 Climbing KA90
04:47PM 42.2436 -71.2103 323° Northwest 82 94 1,800 420 Climbing Boston Center
04:48PM 42.2636 -71.2267 329° Northwest 76 87 2,400 420 Climbing Boston Center
04:49PM 42.2806 -71.2364 337° Northwest 69 79 2,700 300 Climbing Boston Center
04:50PM 42.3014 -71.2331 North 76 87 3,100 300 Climbing Boston Center
04:51PM 42.3228 -71.2242 17° North 77 89 3,400 240 Climbing Boston Center
04:52PM 42.3467 -71.2250 359° North 85 98 3,600 120 Climbing Boston Center
04:53PM 42.3686 -71.2322 346° North 82 94 3,700  Climbing Boston Center
04:54PM 42.4000 -71.2167 20° North 91 105 3,600 -60 Descending KA90
04:55PM 42.4167 -71.2000 36° Northeast 87 100 3,600  Level KA90
04:56PM 42.4333 -71.1833 36° Northeast 89 102 3,600  Level KA90
04:57PM 42.4500 -71.1667 36° Northeast 90 104 3,600  Level KA90
04:58PM 42.4833 -71.1500 20° North 93 107 3,600  Level KA90
04:59PM 42.5000 -71.1333 36° Northeast 89 102 3,600  Level KA90
05:00PM 42.5167 -71.1167 36° Northeast 83 96 3,600  Level KA90
05:01PM 42.5500 -71.1000 20° North 86 99 3,600 -60 Level KA90
05:02PM 42.5667 -71.0833 36° Northeast 89 102 3,500  Descending KA90
05:03PM 42.5833 -71.0667 36° Northeast 82 94 3,600  Climbing KA90
05:04PM 42.6167 -71.0500 20° North 86 99 3,600  Level KA90
05:05PM 42.6322 -71.0406 24° Northeast 89 102 3,600  Level Boston Center
05:06PM 42.6544 -71.0244 28° Northeast 91 105 3,600  Level Boston Center
05:07PM 42.6789 -71.0072 27° Northeast 91 105 3,600  Level Boston Center
05:08PM 42.6997 -70.9914 29° Northeast 87 100 3,600  Level Boston Center
05:09PM 42.7206 -70.9753 30° Northeast 86 99 3,600  Level Boston Center
05:10PM 42.7472 -70.9575 26° Northeast 99 114 3,600  Level Boston Center
05:11PM 42.7694 -70.9414 28° Northeast 91 105 3,600  Level Boston Center
05:12PM 42.7919 -70.9231 31° Northeast 88 101 3,600  Level Boston Center
05:14PM 42.8131 -70.9103 24° Northeast 84 97 3,600 -60 Level Boston Center
05:15PM 42.8336 -70.8950 29° Northeast 85 98 3,500  Descending Boston Center
05:16PM 42.8556 -70.8817 24° Northeast 81 93 3,600  Climbing Boston Center
05:17PM 42.8772 -70.8661 28° Northeast 87 100 3,500  Descending Boston Center
05:17PM 42.8833 -70.8500 63° Northeast 92 106 3,600 60 Climbing KA90
05:18PM 42.9167 -70.8333 20° North 87 100 3,600  Level KA90
05:19PM 42.9333 -70.8167 36° Northeast 91 105 3,600  Level KA90
05:20PM 42.9500 -70.8000 36° Northeast 90 104 3,600  Level KA90
05:21PM 42.9833 -70.7833 20° North 101 116 3,600  Level KA90
05:22PM 43.0000 -70.7667 36° Northeast 87 100 3,600  Level KA90
05:23PM 43.0167 -70.7500 36° Northeast 89 102 3,600  Level KA90
05:24PM 43.0333 -70.7333 36° Northeast 87 100 3,600 -60 Level KA90
05:25PM 43.0667 -70.7167 20° North 90 104 3,500  Descending KA90
05:26PM 43.0833 -70.7000 36° Northeast 86 99 3,600  Climbing KA90
05:27PM 43.1000 -70.7000 360° North 87 100 3,500 -60 Descending KA90
05:28PM 43.1167 -70.6833 36° Northeast 88 101 3,500  Level KA90
05:29PM 43.1386 -70.6711 22° Northeast 85 98 3,600  Climbing Boston Center
05:30PM 43.1603 -70.6531 31° Northeast 86 99 3,500 -60 Descending Boston Center
05:31PM 43.1800 -70.6397 26° Northeast 81 93 3,500  Level Boston Center
05:32PM 43.2022 -70.6250 26° Northeast 81 93 3,600  Climbing Boston Center
05:33PM 43.2225 -70.6089 30° Northeast 84 97 3,600  Level Boston Center
05:34PM 43.2458 -70.5942 25° Northeast 91 105 3,600 -60 Level Boston Center
05:35PM 43.2708 -70.5778 26° Northeast 91 105 3,500  Descending Boston Center
05:36PM 43.2939 -70.5617 27° Northeast 94 108 3,600  Climbing Boston Center
05:37PM 43.3156 -70.5442 30° Northeast 91 105 3,500  Descending Boston Center
05:38PM 43.3375 -70.5264 31° Northeast 85 98 3,600  Climbing Boston Center
05:39PM 43.3597 -70.5106 27° Northeast 88 101 3,600  Level Boston Center
05:40PM 43.3822 -70.4939 28° Northeast 92 106 3,600  Level Boston Center
05:41PM 43.4028 -70.4758 33° Northeast 91 105 3,600  Level Boston Center
05:42PM 43.4247 -70.4592 29° Northeast 90 104 3,600 -60 Level Boston Center
05:43PM 43.4492 -70.4400 30° Northeast 90 104 3,500  Descending Boston Center
05:44PM 43.4714 -70.4244 27° Northeast 88 101 3,600  Climbing Boston Center
05:45PM 43.4956 -70.4072 27° Northeast 93 107 3,500 -180 Descending Boston Center
05:46PM 43.5197 -70.3906 27° Northeast 99 114 3,300 -300 Descending Boston Center
05:47PM 43.5456 -70.3733 26° Northeast 103 119 2,900 -480 Descending Boston Center
05:48PM 43.5725 -70.3528 29° Northeast 103 119 2,400 -480 Descending Boston Center
05:49PM 43.6006 -70.3342 26° Northeast 110 127 1,900 -600 Descending Boston Center
05:50PM 43.6272 -70.3106 33° Northeast 115 132 1,200 -780 Descending Boston Center
05:52PM 43.6439 -70.2933 37° Northeast 88 101 300 -900 Descending Boston Center